Time;durP1;ratioP1;P1;durP2;ratioP2;P2;SDS_P1;SDS_P2;PMS_P1;PMS_P2;Temp;Humidity;BMP_temperature;BMP_pressure;BME280_temperature;BME280_humidity;BME280_pressure;Samples;Min_cycle;Max_cycle;Signal;HPM_P1;HPM_P2
2021/05/17 00:00:43;;;;;;;8.87;4.13;;;;;;;11.04;72.84;97976.25;125395;1107;103098;-74
2021/05/17 00:03:18;;;;;;;6.20;3.75;;;;;;;11.04;72.72;97977.08;125406;1100;103151;-74
2021/05/17 00:05:46;;;;;;;7.27;3.77;;;;;;;11.04;72.84;97977.08;125408;1107;103020;-73
2021/05/17 00:08:17;;;;;;;7.10;3.60;;;;;;;11.05;72.78;97977.94;125421;1107;103158;-74
2021/05/17 00:10:47;;;;;;;6.93;3.57;;;;;;;11.05;72.76;97988.58;125471;1107;103253;-74
2021/05/17 00:13:18;;;;;;;8.30;3.83;;;;;;;11.00;72.63;97983.69;125422;1107;103045;-73
2021/05/17 00:15:47;;;;;;;9.30;3.70;;;;;;;10.97;72.83;97994.61;125432;1107;103093;-75
2021/05/17 00:18:15;;;;;;;9.63;3.70;;;;;;;10.95;72.84;97993.91;125404;1107;103572;-74
2021/05/17 00:20:44;;;;;;;6.80;3.50;;;;;;;10.94;72.85;97993.05;125399;1100;103103;-75
2021/05/17 00:23:13;;;;;;;6.50;3.30;;;;;;;10.92;72.91;97989.70;125378;1107;103017;-75
2021/05/17 00:25:41;;;;;;;4.93;3.30;;;;;;;10.91;72.86;97990.67;125402;1100;103025;-73
2021/05/17 00:28:12;;;;;;;6.15;3.10;;;;;;;10.89;72.80;97995.30;125449;1107;103072;-74
2021/05/17 00:30:41;;;;;;;8.60;2.93;;;;;;;10.88;72.95;97998.93;125427;1107;103468;-74
2021/05/17 00:33:09;;;;;;;8.53;2.90;;;;;;;10.91;72.86;97995.17;125440;1107;103094;-73
2021/05/17 00:35:40;;;;;;;4.70;2.90;;;;;;;10.90;72.85;98002.30;125413;1107;103094;-74
2021/05/17 00:38:08;;;;;;;4.73;2.97;;;;;;;10.92;72.95;98004.83;125371;1107;102997;-74
2021/05/17 00:40:37;;;;;;;6.33;2.90;;;;;;;10.92;72.98;98016.30;125392;1100;103155;-74
2021/05/17 00:43:09;;;;;;;4.83;2.80;;;;;;;10.90;72.89;98007.61;125400;1100;103096;-73
2021/05/17 00:45:38;;;;;;;8.33;2.90;;;;;;;10.90;73.14;98007.61;125399;1107;103100;-74
2021/05/17 00:48:09;;;;;;;6.63;3.10;;;;;;;10.91;73.05;98005.81;125373;1100;103157;-74
2021/05/17 00:50:37;;;;;;;4.95;3.10;;;;;;;10.90;72.83;97996.97;125358;1107;103020;-73
2021/05/17 00:53:08;;;;;;;7.13;2.90;;;;;;;10.87;73.05;97992.78;125433;1107;103160;-74
2021/05/17 00:55:38;;;;;;;6.40;3.70;;;;;;;10.88;72.98;97990.95;125391;1107;103028;-75
2021/05/17 00:58:08;;;;;;;7.73;3.17;;;;;;;10.90;72.88;97993.48;125377;1107;103216;-73
2021/05/17 01:00:37;;;;;;;6.07;3.00;;;;;;;10.89;73.03;97983.83;125410;1107;103240;-73
2021/05/17 01:03:09;;;;;;;5.75;3.20;;;;;;;10.91;73.03;97989.84;125401;1100;103171;-72
2021/05/17 01:05:42;;;;;;;6.25;2.98;;;;;;;10.94;73.15;97993.05;125383;1107;103000;-74
2021/05/17 01:08:23;;;;;;;5.30;3.10;;;;;;;10.96;73.11;97982.29;125396;1107;103011;-73
2021/05/17 01:10:57;;;;;;;5.40;3.10;;;;;;;10.96;72.98;97980.45;125442;1107;103246;-75
2021/05/17 01:13:28;;;;;;;5.60;2.90;;;;;;;10.95;73.08;97986.75;125503;1107;103476;-75
2021/05/17 01:16:02;;;;;;;9.83;3.83;;;;;;;10.95;73.15;97985.93;125423;1107;103096;-72
2021/05/17 01:18:34;;;;;;;4.93;2.87;;;;;;;10.95;73.33;97984.09;125440;1100;104694;-73
2021/05/17 01:21:05;;;;;;;5.37;3.40;;;;;;;10.96;73.10;97985.77;125512;1100;103229;-72
2021/05/17 01:23:45;;;;;;;4.57;2.80;;;;;;;10.96;73.22;97977.80;125511;1100;103004;-73
2021/05/17 01:26:17;;;;;;;4.85;2.70;;;;;;;10.93;73.09;97982.57;125473;1104;103134;-73
2021/05/17 01:28:48;;;;;;;6.93;3.30;;;;;;;10.85;72.96;97980.59;125473;1104;103092;-74
2021/05/17 01:31:16;;;;;;;3.47;2.53;;;;;;;10.79;72.96;97982.00;125529;1104;103122;-73
2021/05/17 01:33:47;;;;;;;5.15;3.00;;;;;;;10.71;72.83;97981.85;125533;1100;103130;-75
2021/05/17 01:36:19;;;;;;;4.83;3.03;;;;;;;10.61;72.83;97976.53;125536;1099;102995;-73
2021/05/17 01:38:54;;;;;;;4.67;2.87;;;;;;;10.54;72.79;97986.89;125425;1105;103163;-74
2021/05/17 01:41:26;;;;;;;6.93;3.50;;;;;;;10.46;73.01;97981.42;125517;1104;103046;-74
2021/05/17 01:43:58;;;;;;;5.27;3.03;;;;;;;10.42;73.04;97983.49;125398;1104;103055;-74
2021/05/17 01:46:30;;;;;;;6.57;3.33;;;;;;;10.44;73.22;97980.72;125536;1104;103032;-75
2021/05/17 01:49:01;;;;;;;6.00;3.23;;;;;;;10.47;73.23;97974.27;125579;1104;103130;-74
2021/05/17 01:51:31;;;;;;;7.27;3.33;;;;;;;10.48;73.13;97976.80;125542;1100;103134;-75
2021/05/17 01:54:05;;;;;;;5.87;3.20;;;;;;;10.46;73.15;97970.78;125527;1104;103029;-74
2021/05/17 01:56:35;;;;;;;7.77;3.43;;;;;;;10.47;73.64;97968.95;125449;1107;103490;-73
2021/05/17 01:59:04;;;;;;;7.90;3.80;;;;;;;10.48;73.16;97971.48;125499;1104;103123;-73
2021/05/17 02:01:32;;;;;;;6.83;3.30;;;;;;;10.50;73.28;97969.53;125540;1100;103092;-73
2021/05/17 02:04:03;;;;;;;7.27;3.50;;;;;;;10.52;73.27;97972.04;125542;1100;103284;-74
2021/05/17 02:06:34;;;;;;;7.57;3.50;;;;;;;10.53;73.39;97968.41;125377;1105;103048;-74
2021/05/17 02:09:05;;;;;;;6.67;3.40;;;;;;;10.50;73.21;97961.56;125523;1104;102997;-74
2021/05/17 02:11:34;;;;;;;7.03;3.93;;;;;;;10.42;73.05;97959.57;125539;1104;103091;-72
2021/05/17 02:14:06;;;;;;;7.53;3.87;;;;;;;10.30;72.93;97962.46;125549;1100;103025;-73
2021/05/17 02:16:35;;;;;;;8.10;4.10;;;;;;;10.21;73.20;97966.79;125315;1107;103465;-73
2021/05/17 02:19:04;;;;;;;7.70;4.27;;;;;;;10.16;73.30;97959.23;125439;1104;103023;-74
2021/05/17 02:21:33;;;;;;;8.73;3.67;;;;;;;10.10;73.21;97965.91;126132;1104;103078;-74
2021/05/17 02:24:11;;;;;;;7.73;4.20;;;;;;;10.03;72.87;97969.27;125530;1100;103062;-74
2021/05/17 02:26:40;;;;;;;8.97;4.07;;;;;;;9.92;72.93;97955.09;126069;1100;102998;-74
2021/05/17 02:29:11;;;;;;;8.03;4.43;;;;;;;9.87;73.18;97967.12;125568;1104;103216;-73
2021/05/17 02:31:40;;;;;;;8.30;4.50;;;;;;;9.81;73.08;97961.36;125454;1104;103122;-73
2021/05/17 02:34:10;;;;;;;9.30;4.63;;;;;;;9.78;73.14;97958.14;125555;1104;103023;-73
2021/05/17 02:36:38;;;;;;;9.50;5.30;;;;;;;9.68;73.05;97950.12;125473;1099;103026;-77
2021/05/17 02:39:09;;;;;;;11.37;5.60;;;;;;;9.57;73.18;97948.41;125508;1104;103068;-74
2021/05/17 02:41:42;;;;;;;9.67;5.20;;;;;;;9.49;73.58;97943.77;125359;1104;103152;-74
2021/05/17 02:44:12;;;;;;;9.48;5.55;;;;;;;9.44;73.23;97947.77;125489;1104;103164;-74
2021/05/17 02:46:42;;;;;;;12.67;6.37;;;;;;;9.37;73.23;97944.81;125486;1104;103000;-74
2021/05/17 02:49:11;;;;;;;11.00;6.05;;;;;;;9.34;73.55;97945.93;125407;1105;103256;-74
2021/05/17 02:51:39;;;;;;;11.13;6.17;;;;;;;9.32;73.89;97947.88;125526;1104;103025;-74
2021/05/17 02:54:20;;;;;;;14.47;6.47;;;;;;;9.36;73.77;97959.05;125545;1100;103469;-74
2021/05/17 02:57:05;;;;;;;8.47;5.20;;;;;;;9.39;74.07;97950.83;125377;1107;103035;-75
2021/05/17 02:59:36;;;;;;;12.17;6.00;;;;;;;9.41;73.89;97948.89;125399;1107;103152;-75
2021/05/17 03:02:11;;;;;;;12.50;6.50;;;;;;;9.45;73.88;97947.66;125409;1100;103018;-74
2021/05/17 03:04:45;;;;;;;10.67;5.70;;;;;;;9.46;73.82;97945.83;125424;1107;103025;-74
2021/05/17 03:07:15;;;;;;;11.83;5.83;;;;;;;9.41;73.83;97948.89;125419;1107;103100;-74
2021/05/17 03:09:46;;;;;;;12.13;6.13;;;;;;;9.32;73.86;97953.18;125371;1107;103025;-75
2021/05/17 03:12:23;;;;;;;9.93;5.30;;;;;;;9.28;74.25;97950.91;125399;1107;103103;-75
2021/05/17 03:14:51;;;;;;;8.25;5.30;;;;;;;9.24;74.16;97953.81;125410;1107;103025;-75
2021/05/17 03:17:25;;;;;;;9.53;5.20;;;;;;;9.28;74.39;97958.86;125409;1107;102997;-74
2021/05/17 03:19:54;;;;;;;11.90;5.50;;;;;;;9.32;74.35;97962.94;125428;1107;103003;-76
2021/05/17 03:22:31;;;;;;;9.60;5.23;;;;;;;9.37;74.60;97969.52;125429;1107;103091;-75
2021/05/17 03:25:06;;;;;;;9.80;5.47;;;;;;;9.43;74.42;97976.14;125400;1107;103086;-72
2021/05/17 03:27:34;;;;;;;12.73;5.50;;;;;;;9.47;74.60;97979.36;125323;1107;103482;-75
2021/05/17 03:30:03;;;;;;;14.03;5.93;;;;;;;9.47;74.34;97985.52;125537;1104;103119;-72
2021/05/17 03:32:32;;;;;;;7.93;4.73;;;;;;;9.51;74.36;97975.47;125380;1104;103307;-75
2021/05/17 03:35:02;;;;;;;8.03;5.00;;;;;;;9.51;74.67;97981.64;125301;1100;103017;-75
2021/05/17 03:37:31;;;;;;;10.80;5.40;;;;;;;9.52;74.61;97988.63;125269;1105;103197;-75
2021/05/17 03:39:59;;;;;;;9.97;5.07;;;;;;;9.53;74.53;97989.45;125665;1100;103128;-75
2021/05/17 03:42:27;;;;;;;11.50;6.53;;;;;;;9.55;74.48;97999.96;125474;1104;101876;-73
2021/05/17 03:44:56;;;;;;;11.97;6.57;;;;;;;9.59;74.80;98002.20;125404;1107;103160;-76
2021/05/17 03:47:26;;;;;;;12.70;6.90;;;;;;;9.64;74.97;97991.18;125450;1104;103100;-73
2021/05/17 03:49:54;;;;;;;11.17;6.63;;;;;;;9.68;74.75;97990.80;125499;1104;103164;-73
2021/05/17 03:52:23;;;;;;;11.70;5.90;;;;;;;9.73;74.90;97993.05;125559;1104;103101;-74
2021/05/17 03:54:53;;;;;;;13.07;6.87;;;;;;;9.79;74.87;97991.66;125442;1104;102962;-73
2021/05/17 03:57:21;;;;;;;12.00;6.50;;;;;;;9.86;74.94;97992.81;125513;1104;103029;-73
2021/05/17 03:59:49;;;;;;;11.80;6.30;;;;;;;9.93;74.94;97987.83;125363;1104;103151;-74
2021/05/17 04:02:23;;;;;;;10.97;5.93;;;;;;;9.97;74.81;97984.76;125424;1107;103123;-74
2021/05/17 04:15:52;;;;;;;10.63;5.50;;;;;;;10.26;74.92;97973.36;125514;1104;103068;-75
2021/05/17 04:18:23;;;;;;;8.67;5.07;;;;;;;10.33;74.94;97965.70;125432;1104;103088;-76
2021/05/17 04:20:53;;;;;;;8.15;5.10;;;;;;;10.37;74.88;97964.45;125426;1107;102997;-77
2021/05/17 04:23:28;;;;;;;8.68;4.80;;;;;;;10.42;74.97;97966.72;125424;1100;103596;-79
2021/05/17 04:25:57;;;;;;;12.77;4.13;;;;;;;10.47;74.98;97975.13;125390;1104;103184;-78
2021/05/17 04:28:27;;;;;;;7.17;4.90;;;;;;;10.50;75.06;97974.85;125396;1100;103003;-78
2021/05/17 04:30:58;;;;;;;8.50;4.75;;;;;;;10.54;74.86;97984.23;125417;1100;103029;-80
2021/05/17 04:33:26;;;;;;;7.33;4.53;;;;;;;10.59;74.87;97985.64;125694;1107;103099;-76
2021/05/17 04:35:54;;;;;;;8.87;4.93;;;;;;;10.64;75.10;97994.02;125425;1107;103000;-76
2021/05/17 04:38:26;;;;;;;9.30;5.23;;;;;;;10.68;75.08;97996.28;125513;1104;103020;-78
2021/05/17 04:40:54;;;;;;;9.60;4.97;;;;;;;10.72;75.16;97991.52;125505;1100;103091;-79
2021/05/17 04:43:23;;;;;;;11.30;5.50;;;;;;;10.77;74.88;97999.92;125672;1104;103094;-76
2021/05/17 04:45:52;;;;;;;10.10;5.13;;;;;;;10.81;75.05;97998.66;125437;1107;103117;-77
2021/05/17 04:48:20;;;;;;;7.60;4.57;;;;;;;10.85;75.08;97993.89;125441;1105;103115;-78
2021/05/17 04:50:48;;;;;;;7.30;4.60;;;;;;;10.88;75.05;97990.95;125538;1104;103069;-77
2021/05/17 04:53:17;;;;;;;10.07;5.03;;;;;;;10.91;75.00;98003.16;125387;1100;103072;-76
2021/05/17 04:55:45;;;;;;;12.07;5.40;;;;;;;10.95;75.04;97996.57;125551;1100;103022;-77
2021/05/17 04:58:13;;;;;;;9.27;4.87;;;;;;;10.99;74.98;97993.48;125571;1104;103093;-77
2021/05/17 05:00:41;;;;;;;11.47;4.80;;;;;;;11.06;75.26;97990.26;125543;1100;103170;-76
2021/05/17 05:03:10;;;;;;;7.00;4.30;;;;;;;11.09;74.99;97977.49;125524;1104;103045;-77
2021/05/17 05:05:38;;;;;;;8.77;4.57;;;;;;;11.14;75.23;97972.59;125550;1104;103113;-78
2021/05/17 05:08:07;;;;;;;6.43;4.17;;;;;;;11.22;75.23;97968.38;125408;1100;103046;-77
2021/05/17 05:10:37;;;;;;;6.63;4.40;;;;;;;11.28;75.11;97965.98;125443;1104;103176;-79
2021/05/17 05:13:07;;;;;;;7.57;4.27;;;;;;;11.37;75.02;97961.64;125549;1104;103115;-79
2021/05/17 05:15:36;;;;;;;6.93;4.33;;;;;;;11.43;75.21;97963.70;125530;1104;103083;-79
2021/05/17 05:18:04;;;;;;;7.73;4.63;;;;;;;11.50;75.12;97958.65;125418;1099;103086;-77
2021/05/17 05:20:33;;;;;;;6.70;4.00;;;;;;;11.56;75.09;97954.56;125522;1104;103159;-78
2021/05/17 05:23:11;;;;;;;6.47;4.03;;;;;;;11.61;74.99;97955.79;125527;1104;103026;-79
2021/05/17 05:28:52;;;;;;;6.30;4.00;;;;;;;11.76;75.06;97960.65;125595;1105;103088;-81
2021/05/17 05:32:22;;;;;;;;;;;;;;;11.83;75.12;97956.42;125504;1107;103099;-79
2021/05/17 05:34:19;;;;;;;6.70;3.60;;;;;;;11.91;75.09;97956.53;125518;1100;103155;-81
2021/05/17 05:36:48;;;;;;;8.43;3.97;;;;;;;11.99;75.11;97955.81;125498;1107;103071;-79
2021/05/17 05:39:21;;;;;;;;;;;;;;;12.06;75.10;97956.05;125476;1107;102834;-78
2021/05/17 05:41:49;;;;;;;8.60;3.60;;;;;;;12.11;75.00;97956.45;125453;1107;103096;-79
2021/05/17 05:44:18;;;;;;;6.73;3.47;;;;;;;12.20;74.98;97949.41;125364;1107;103086;-80
2021/05/17 05:46:46;;;;;;;8.33;4.10;;;;;;;12.27;75.14;97942.45;125497;1107;103036;-79
2021/05/17 05:49:14;;;;;;;7.30;3.40;;;;;;;12.35;74.95;97939.05;125494;1107;103096;-79
2021/05/17 05:51:45;;;;;;;4.87;3.27;;;;;;;12.43;75.17;97940.96;125399;1107;102720;-79
2021/05/17 05:54:14;;;;;;;10.43;3.57;;;;;;;12.49;75.08;97940.36;125547;1100;103091;-79
2021/05/17 05:56:44;;;;;;;7.70;3.30;;;;;;;12.57;74.85;97942.26;125596;1104;103164;-78
2021/05/17 05:59:12;;;;;;;6.70;3.20;;;;;;;12.64;74.80;97935.33;125507;1104;103000;-79
2021/05/17 06:01:41;;;;;;;4.07;3.20;;;;;;;12.70;74.96;97937.39;125521;1100;103050;-79
2021/05/17 06:04:09;;;;;;;5.57;3.40;;;;;;;12.76;74.65;97935.92;125420;1100;103007;-79
2021/05/17 06:06:37;;;;;;;3.50;3.03;;;;;;;12.86;74.72;97931.34;125397;1105;103084;-78
2021/05/17 06:09:08;;;;;;;4.03;3.00;;;;;;;12.94;74.77;97928.75;125596;1100;102994;-76
2021/05/17 06:11:37;;;;;;;5.17;3.43;;;;;;;13.01;74.84;97931.63;125492;1104;103184;-79
2021/05/17 06:14:11;;;;;;;5.00;3.30;;;;;;;13.08;74.65;97923.83;125532;1100;103072;-79
2021/05/17 06:16:40;;;;;;;8.73;3.40;;;;;;;13.14;74.65;97925.05;125459;1100;103219;-80
2021/05/17 06:19:08;;;;;;;8.93;3.50;;;;;;;13.22;74.49;97922.45;125409;1104;103039;-81
2021/05/17 06:21:40;;;;;;;6.93;3.17;;;;;;;13.30;74.62;97925.14;125424;1107;103512;-79
2021/05/17 06:24:12;;;;;;;4.80;3.10;;;;;;;13.37;74.54;97912.02;125405;1104;103101;-79
2021/05/17 06:26:41;;;;;;;7.50;3.10;;;;;;;13.44;74.56;97913.09;125455;1104;103033;-77
2021/05/17 06:29:09;;;;;;;5.87;2.93;;;;;;;13.52;74.40;97909.63;125357;1100;103001;-78
2021/05/17 06:31:46;;;;;;;3.97;2.80;;;;;;;13.60;74.52;97912.34;125522;1104;102992;-77
2021/05/17 06:34:14;;;;;;;4.17;3.20;;;;;;;13.70;74.55;97914.89;125586;1104;103099;-77
2021/05/17 06:36:43;;;;;;;8.87;3.20;;;;;;;13.80;74.44;97901.39;125835;1105;103176;-76
2021/05/17 06:39:12;;;;;;;6.83;3.10;;;;;;;13.88;74.35;97898.76;126561;1104;101283;-76
2021/05/17 06:41:45;;;;;;;6.23;2.67;;;;;;;14.00;74.28;97891.27;126302;1104;102998;-77
2021/05/17 06:44:13;;;;;;;6.00;2.90;;;;;;;14.12;74.46;97899.81;125464;1104;103147;-78
2021/05/17 06:46:42;;;;;;;3.83;2.63;;;;;;;14.22;74.16;97891.67;126014;1104;103083;-77
2021/05/17 06:49:10;;;;;;;4.20;2.90;;;;;;;14.28;74.07;97897.19;125533;1104;103019;-78
2021/05/17 06:51:39;;;;;;;3.97;2.90;;;;;;;14.43;74.24;97893.88;125404;1099;103195;-78
2021/05/17 06:54:13;;;;;;;5.00;2.67;;;;;;;14.58;74.09;97881.50;125651;1104;103075;-76
2021/05/17 06:57:09;;;;;;;2.90;2.60;;;;;;;14.73;74.11;97875.53;125892;1104;103168;-77
2021/05/17 06:59:43;;;;;;;4.77;2.83;;;;;;;16.44;71.09;97880.65;125596;1104;103026;-78
2021/05/17 07:02:20;;;;;;;2.47;2.27;;;;;;;18.82;69.43;97869.98;125601;1107;103000;-75
2021/05/17 07:04:56;;;;;;;5.47;2.50;;;;;;;20.98;68.93;97871.80;125373;1107;103123;-77
2021/05/17 07:13:07;;;;;;;5.15;1.85;;;;;;;26.01;67.43;97851.44;125434;1107;102996;-77
2021/05/17 07:15:36;;;;;;;4.00;1.80;;;;;;;27.23;66.35;97848.66;125430;1105;103116;-77
2021/05/17 07:18:09;;;;;;;3.03;2.00;;;;;;;28.26;66.94;97854.66;125491;1100;103178;-78
2021/05/17 07:26:16;;;;;;;6.83;1.80;;;;;;;30.47;64.76;97851.70;125542;1099;103541;-80
2021/05/17 07:28:51;;;;;;;3.17;1.33;;;;;;;30.82;63.84;97836.38;125326;1099;103058;-78
2021/05/17 07:31:19;;;;;;;1.87;1.37;;;;;;;31.01;64.13;97833.90;125421;1107;102997;-77
2021/05/17 07:33:48;;;;;;;3.63;1.43;;;;;;;31.76;64.54;97834.36;125407;1107;103005;-78
2021/05/17 07:36:19;;;;;;;4.83;1.90;;;;;;;32.88;64.88;97831.20;125623;1104;103087;-78
2021/05/17 07:38:50;;;;;;;2.13;1.40;;;;;;;32.93;63.08;97828.41;125397;1107;103125;-79
2021/05/17 07:41:23;;;;;;;3.30;1.27;;;;;;;33.36;61.57;97833.25;125427;1100;103026;-78
2021/05/17 07:43:52;;;;;;;2.40;1.30;;;;;;;32.71;61.72;97825.28;125370;1107;103000;-80
2021/05/17 07:46:22;;;;;;;12.00;2.13;;;;;;;33.20;62.25;97829.83;125407;1107;103237;-80
2021/05/17 07:51:51;;;;;;;5.85;0.90;;;;;;;32.85;58.17;97823.52;124999;1100;103125;-78
2021/05/17 07:54:21;;;;;;;5.43;1.73;;;;;;;32.43;59.48;97824.92;125420;1099;103473;-80
2021/05/17 07:56:50;;;;;;;2.88;1.10;;;;;;;32.18;58.46;97830.30;125573;1104;103068;-78
2021/05/17 07:59:20;;;;;;;1.60;1.50;;;;;;;32.53;59.54;97826.80;125555;1104;102863;-78
2021/05/17 08:01:50;;;;;;;5.40;1.43;;;;;;;33.12;60.05;97841.48;125385;1104;103245;-78
2021/05/17 08:04:25;;;;;;;2.00;1.13;;;;;;;33.31;56.27;97835.22;125508;1104;103135;-78
2021/05/17 08:07:07;;;;;;;4.43;1.50;;;;;;;32.58;57.60;97838.58;125412;1105;103491;-80
2021/05/17 08:09:35;;;;;;;1.73;1.60;;;;;;;33.27;57.98;97837.74;125382;1107;103128;-79
2021/05/17 08:12:08;;;;;;;1.27;1.17;;;;;;;33.40;57.11;97830.75;125472;1107;103121;-78
2021/05/17 08:14:40;;;;;;;2.17;1.43;;;;;;;32.64;52.36;97834.69;125366;1107;103133;-83
2021/05/17 08:17:14;;;;;;;2.77;1.63;;;;;;;32.07;54.64;97835.01;125450;1107;103556;-82
2021/05/17 08:19:43;;;;;;;1.53;1.43;;;;;;;32.27;53.99;97835.17;125452;1100;103115;-82
2021/05/17 08:22:11;;;;;;;1.30;1.20;;;;;;;31.70;50.10;97836.25;125484;1107;103026;-81
2021/05/17 08:24:40;;;;;;;3.17;1.50;;;;;;;30.27;52.81;97825.90;125423;1107;103575;-82
2021/05/17 08:27:12;;;;;;;1.70;1.40;;;;;;;29.75;53.09;97819.41;125416;1107;103049;-81
2021/05/17 08:29:43;;;;;;;4.87;1.90;;;;;;;30.06;53.29;97822.28;125428;1100;102996;-81
2021/05/17 08:32:13;;;;;;;2.93;1.67;;;;;;;30.79;52.26;97817.72;125582;1100;103129;-80
2021/05/17 08:34:41;;;;;;;3.43;1.37;;;;;;;30.51;49.95;97822.63;125431;1107;103075;-79
2021/05/17 08:37:09;;;;;;;3.20;1.70;;;;;;;29.97;50.01;97821.96;125599;1104;103003;-79
2021/05/17 08:39:38;;;;;;;5.23;1.63;;;;;;;29.46;50.12;97817.06;125351;1107;103286;-79
2021/05/17 08:42:17;;;;;;;2.90;1.70;;;;;;;29.65;50.10;97817.43;125547;1104;103106;-78
2021/05/17 08:44:51;;;;;;;3.87;1.43;;;;;;;29.95;49.98;97818.66;125315;1104;103069;-79
2021/05/17 08:47:19;;;;;;;2.17;1.43;;;;;;;30.43;47.13;97823.16;125386;1100;103573;-77
2021/05/17 08:49:48;;;;;;;4.90;1.93;;;;;;;29.91;47.85;97824.94;125488;1100;103147;-82
2021/05/17 08:52:20;;;;;;;2.33;1.77;;;;;;;30.05;48.30;97820.64;125572;1104;103083;-80
2021/05/17 08:54:48;;;;;;;7.07;1.80;;;;;;;30.23;48.43;97819.30;125406;1100;103132;-79
2021/05/17 08:57:16;;;;;;;3.57;1.30;;;;;;;30.55;48.44;97818.25;125403;1107;103029;-77
2021/05/17 08:59:44;;;;;;;2.65;1.70;;;;;;;30.97;47.88;97812.78;125432;1107;103075;-78
2021/05/17 09:02:13;;;;;;;6.10;1.90;;;;;;;31.20;47.71;97805.91;125422;1105;103213;-78
2021/05/17 09:05:18;;;;;;;1.77;1.57;;;;;;;31.03;46.99;97811.67;125379;1107;103192;-79
2021/05/17 09:07:51;;;;;;;2.97;1.60;;;;;;;30.03;46.98;97808.27;125552;1104;103304;-82
2021/05/17 09:10:32;;;;;;;2.83;1.70;;;;;;;30.28;47.11;97807.51;125605;1104;103449;-81
2021/05/17 09:13:15;;;;;;;2.40;1.40;;;;;;;30.01;46.62;97797.59;125461;1100;103466;-81
2021/05/17 09:15:54;;;;;;;1.75;1.50;;;;;;;29.23;47.02;97802.69;125551;1100;103016;-82
2021/05/17 09:18:30;;;;;;;4.53;1.80;;;;;;;28.73;47.21;97796.58;125391;1107;103024;-82
2021/05/17 09:21:06;;;;;;;4.40;1.63;;;;;;;28.22;46.93;97802.39;125444;1100;103171;-79
2021/05/17 09:23:38;;;;;;;4.80;1.87;;;;;;;28.73;45.35;97796.58;125404;1107;103058;-78
2021/05/17 09:26:21;;;;;;;1.77;1.60;;;;;;;28.69;43.86;97800.92;125657;1104;103089;-78
2021/05/17 09:28:54;;;;;;;9.00;2.13;;;;;;;28.10;42.78;97797.05;125425;1107;103096;-80
2021/05/17 09:31:28;;;;;;;4.27;1.40;;;;;;;27.50;42.85;97791.47;125386;1107;103026;-78
2021/05/17 09:34:04;;;;;;;3.27;1.70;;;;;;;27.06;43.81;97794.91;125400;1107;103278;-79
2021/05/17 09:36:40;;;;;;;5.00;1.77;;;;;;;26.80;43.35;97799.12;125374;1107;103071;-81
2021/05/17 09:39:13;;;;;;;9.53;2.17;;;;;;;27.04;44.02;97788.88;125411;1100;103092;-81
2021/05/17 09:41:55;;;;;;;2.63;1.80;;;;;;;26.99;43.87;97789.64;125593;1104;103088;-79
2021/05/17 09:44:34;;;;;;;6.10;2.10;;;;;;;27.42;43.29;97789.14;125342;1107;103078;-79
2021/05/17 09:47:17;;;;;;;1.87;1.50;;;;;;;27.39;43.42;97786.91;125443;1107;103454;-78
2021/05/17 09:49:55;;;;;;;3.00;2.00;;;;;;;27.02;43.22;97785.58;125362;1107;103069;-79
2021/05/17 09:52:33;;;;;;;2.20;2.00;;;;;;;26.66;43.57;97787.72;125404;1100;103153;-79
2021/05/17 09:55:10;;;;;;;3.90;2.27;;;;;;;26.80;43.46;97786.33;125429;1107;103034;-78
2021/05/17 09:57:49;;;;;;;3.93;1.83;;;;;;;26.80;42.77;97786.33;125497;1104;103137;-79
2021/05/17 10:00:25;;;;;;;3.67;2.13;;;;;;;26.52;43.11;97788.04;125590;1104;103025;-79
2021/05/17 10:03:02;;;;;;;5.93;2.00;;;;;;;26.22;41.44;97786.45;125414;1100;103055;-76
2021/05/17 10:05:36;;;;;;;2.73;1.37;;;;;;;25.90;42.28;97780.63;125648;1104;103000;-77
2021/05/17 10:08:19;;;;;;;3.47;1.70;;;;;;;25.67;42.50;97785.95;125383;1107;103025;-78
2021/05/17 10:10:52;;;;;;;3.47;2.17;;;;;;;25.53;42.73;97776.39;125385;1107;103150;-78
2021/05/17 10:13:21;;;;;;;2.85;1.93;;;;;;;25.42;42.30;97772.60;125417;1107;103477;-78
2021/05/17 10:15:49;;;;;;;4.33;2.03;;;;;;;25.07;41.97;97782.45;125397;1104;103031;-78
2021/05/17 10:18:20;;;;;;;5.10;2.10;;;;;;;24.75;41.96;97780.09;125543;1104;103000;-77
2021/05/17 10:20:48;;;;;;;3.90;2.03;;;;;;;24.40;41.81;97774.57;125568;1104;103516;-78
2021/05/17 10:23:21;;;;;;;6.47;1.90;;;;;;;24.16;41.75;97769.09;125498;1100;103023;-77
2021/05/17 10:25:49;;;;;;;1.53;1.40;;;;;;;23.89;41.11;97766.70;125386;1100;102997;-77
2021/05/17 10:28:24;;;;;;;3.23;1.70;;;;;;;23.68;41.54;97765.31;125583;1104;102997;-77
2021/05/17 10:30:52;;;;;;;3.50;1.50;;;;;;;23.47;41.16;97767.47;125722;1104;103914;-78
2021/05/17 10:33:29;;;;;;;2.13;1.57;;;;;;;23.04;41.05;97763.72;125419;1107;103078;-79
2021/05/17 10:36:05;;;;;;;3.93;2.10;;;;;;;22.82;41.49;97758.73;125364;1100;103158;-76
2021/05/17 10:38:53;;;;;;;4.87;1.87;;;;;;;22.94;41.65;97755.30;125513;1104;103136;-79
2021/05/17 10:44:12;;;;;;;4.70;2.20;;;;;;;23.02;41.34;97750.41;125729;1104;103121;-79
2021/05/17 10:46:51;;;;;;;5.63;1.80;;;;;;;23.14;41.61;97752.38;126034;1104;102992;-78
2021/05/17 10:49:35;;;;;;;6.90;1.70;;;;;;;23.09;39.72;97747.61;125457;1099;103000;-77
2021/05/17 10:52:04;;;;;;;4.30;1.93;;;;;;;22.76;40.60;97748.78;125375;1100;103115;-78
2021/05/17 10:54:39;;;;;;;5.80;1.87;;;;;;;22.45;40.32;97751.33;125397;1107;103494;-79
2021/05/17 10:57:17;;;;;;;3.93;2.00;;;;;;;22.04;40.75;97749.94;125616;1104;103097;-77
2021/05/17 11:02:43;;;;;;;2.00;1.80;;;;;;;22.24;41.15;97751.69;125490;1104;103083;-76
2021/05/17 11:05:19;;;;;;;5.13;2.20;;;;;;;22.25;40.71;97745.22;125442;1107;103047;-77
2021/05/17 11:07:59;;;;;;;1.23;1.07;;;;;;;22.25;40.82;97739.80;125382;1105;103058;-78
2021/05/17 11:10:37;;;;;;;2.27;1.90;;;;;;;22.27;41.17;97735.81;125543;1107;103022;-77
2021/05/17 11:13:14;;;;;;;3.33;1.83;;;;;;;22.38;41.24;97733.45;125323;1107;103094;-78
2021/05/17 11:16:07;;;;;;;3.87;2.50;;;;;;;22.40;40.91;97728.64;125512;1104;102997;-78
2021/05/17 11:18:47;;;;;;;6.03;2.30;;;;;;;22.51;40.81;97735.25;125348;1107;103083;-78
2021/05/17 11:21:27;;;;;;;3.97;2.13;;;;;;;22.50;41.12;97726.30;125530;1104;103069;-77
2021/05/17 11:24:06;;;;;;;3.23;2.20;;;;;;;22.64;41.71;97724.30;125864;1104;102972;-77
2021/05/17 11:26:58;;;;;;;4.30;1.80;;;;;;;22.66;41.20;97718.64;125428;1107;102985;-77
2021/05/17 11:29:36;;;;;;;4.83;1.70;;;;;;;22.55;41.18;97718.34;125686;1104;103101;-74
2021/05/17 11:32:34;;;;;;;2.58;2.05;;;;;;;22.42;41.17;97716.52;125531;1104;102997;-78
2021/05/17 11:35:12;;;;;;;4.45;1.85;;;;;;;22.06;40.72;97722.66;125465;1104;103101;-78
2021/05/17 11:38:11;;;;;;;3.83;1.60;;;;;;;21.88;41.17;97716.09;125642;1104;103132;-78
2021/05/17 11:40:50;;;;;;;5.45;2.15;;;;;;;21.95;41.23;97705.25;125511;1100;103049;-78
2021/05/17 11:43:21;;;;;;;3.63;1.77;;;;;;;22.12;41.41;97700.13;125401;1105;103147;-78
2021/05/17 11:45:50;;;;;;;2.67;1.70;;;;;;;22.27;41.66;97710.63;125533;1104;103117;-78
2021/05/17 11:48:31;;;;;;;4.30;1.70;;;;;;;22.40;41.36;97710.53;125435;1104;103468;-77
2021/05/17 11:50:59;;;;;;;1.30;1.20;;;;;;;22.41;40.44;97703.22;125423;1105;103119;-77
2021/05/17 11:53:28;;;;;;;6.07;2.23;;;;;;;22.22;41.00;97703.14;125396;1107;103025;-78
2021/05/17 11:55:58;;;;;;;2.43;1.63;;;;;;;22.18;40.75;97701.95;125472;1104;102989;-78
2021/05/17 11:58:27;;;;;;;6.93;2.13;;;;;;;22.06;41.08;97696.40;125402;1107;103129;-77
2021/05/17 12:01:19;;;;;;;4.83;1.88;;;;;;;22.14;41.40;97698.84;125398;1100;103004;-78
2021/05/17 12:03:51;;;;;;;3.80;1.93;;;;;;;22.38;41.61;97688.25;125458;1107;103075;-81
2021/05/17 12:06:19;;;;;;;4.50;2.07;;;;;;;22.64;41.61;97688.23;125437;1107;103057;-80
2021/05/17 12:08:48;;;;;;;5.73;2.10;;;;;;;22.83;41.65;97684.49;125426;1100;103132;-79
2021/05/17 12:11:21;;;;;;;4.65;2.28;;;;;;;22.82;41.66;97687.44;125504;1105;103091;-79
2021/05/17 12:13:49;;;;;;;2.43;1.90;;;;;;;22.77;41.59;97682.67;125393;1107;102997;-79